createdAt,value
2022-08-05T00:00:23.859Z,47.90
2022-08-05T00:02:53.185Z,46.00
2022-08-05T00:06:02.698Z,42.58
2022-08-05T00:08:34.357Z,47.53
2022-08-05T00:11:03.806Z,50.38
2022-08-05T00:13:41.971Z,54.05
2022-08-05T00:16:12.668Z,45.08
2022-08-05T00:18:40.450Z,55.47
2022-08-05T00:21:15.908Z,39.92
2022-08-05T00:24:09.940Z,47.38
2022-08-05T00:26:50.819Z,41.95
2022-08-05T00:29:22.568Z,44.35
2022-08-05T00:32:11.039Z,49.78
2022-08-05T00:35:03.791Z,52.60
2022-08-05T00:37:52.978Z,52.08
2022-08-05T00:40:28.484Z,68.15
2022-08-05T00:43:09.980Z,58.92
2022-08-05T00:45:44.100Z,153.98
2022-08-05T00:48:36.015Z,293.73
2022-08-05T00:51:51.935Z,163.70
2022-08-05T00:54:21.701Z,248.30
2022-08-05T00:56:55.298Z,252.30
2022-08-05T00:59:34.744Z,317.17
2022-08-05T01:02:11.923Z,106.78
2022-08-05T01:04:45.844Z,138.57
2022-08-05T01:07:18.109Z,114.47
2022-08-05T01:12:29.778Z,43.00
2022-08-05T01:15:00.348Z,52.42
2022-08-05T01:17:44.779Z,51.45
2022-08-05T01:20:27.449Z,59.03
2022-08-05T01:23:14.447Z,52.35
2022-08-05T01:25:52.356Z,47.53
2022-08-05T01:28:29.995Z,57.83
2022-08-05T01:31:00.477Z,68.15
2022-08-05T01:33:40.893Z,54.80
2022-08-05T01:36:18.981Z,70.45
2022-08-05T01:38:56.218Z,100.68
2022-08-05T01:41:25.689Z,170.40
2022-08-05T01:43:53.537Z,103.15
2022-08-05T01:49:24.131Z,332.88
2022-08-05T01:52:01.172Z,191.98
2022-08-05T01:54:33.844Z,173.27
2022-08-05T01:58:29.580Z,135.40
2022-08-05T02:00:13.076Z,174.20
2022-08-05T02:02:54.427Z,58.75
2022-08-05T02:05:23.752Z,54.05
2022-08-05T02:08:01.106Z,42.08
2022-08-05T02:10:34.839Z,53.00
2022-08-05T02:13:21.004Z,67.88
2022-08-05T02:15:52.114Z,66.13
2022-08-05T02:18:34.872Z,54.58
2022-08-05T02:21:14.816Z,55.78
2022-08-05T02:23:59.926Z,64.85
2022-08-05T02:26:41.103Z,55.38
2022-08-05T02:29:58.749Z,54.10
2022-08-05T02:32:24.196Z,51.85
2022-08-05T02:35:13.758Z,70.82
2022-08-05T02:37:42.446Z,46.03
2022-08-05T02:40:24.071Z,68.00
2022-08-05T02:42:54.172Z,40.53
2022-08-05T02:45:52.259Z,74.65
2022-08-05T02:48:18.680Z,28.73
2022-08-05T02:53:24.038Z,29.30
2022-08-05T02:55:59.644Z,30.80
2022-08-05T02:58:35.028Z,34.25
2022-08-05T03:01:03.285Z,32.58
2022-08-05T03:03:33.767Z,33.17
2022-08-05T03:06:55.285Z,30.00
2022-08-05T03:09:15.734Z,42.30
2022-08-05T03:11:57.429Z,41.42
2022-08-05T03:14:26.333Z,38.83
2022-08-05T03:17:00.059Z,40.38
2022-08-05T03:19:33.810Z,52.38
2022-08-05T03:22:15.948Z,47.78
2022-08-05T03:24:52.235Z,32.70
2022-08-05T03:27:57.860Z,22.95
2022-08-05T03:30:20.814Z,31.77
2022-08-05T03:33:04.067Z,28.30
2022-08-05T03:35:33.605Z,27.48
2022-08-05T03:38:01.106Z,29.35
2022-08-05T03:40:35.842Z,37.88
2022-08-05T03:43:59.183Z,31.48
2022-08-05T03:45:59.067Z,24.42
2022-08-05T03:48:30.110Z,29.13
2022-08-05T03:52:36.627Z,22.27
2022-08-05T03:55:50.834Z,25.38
2022-08-05T03:57:17.810Z,31.63
2022-08-05T03:59:54.791Z,21.38
2022-08-05T04:02:39.035Z,24.33
2022-08-05T04:05:13.214Z,26.02
2022-08-05T04:07:58.536Z,26.42
2022-08-05T04:10:27.827Z,30.08
2022-08-05T04:13:04.344Z,27.95
2022-08-05T04:15:32.800Z,23.77
2022-08-05T04:18:20.623Z,25.83
2022-08-05T04:20:53.826Z,32.13
2022-08-05T04:23:57.369Z,31.23
2022-08-05T04:26:32.318Z,32.00
2022-08-05T04:29:07.485Z,32.90
2022-08-05T04:31:38.680Z,35.20
2022-08-05T04:34:31.830Z,29.92
2022-08-05T04:37:00.042Z,26.10
2022-08-05T04:39:28.187Z,31.38
2022-08-05T04:41:56.065Z,22.88
2022-08-05T04:44:30.810Z,33.40
2022-08-05T04:47:09.688Z,22.52
2022-08-05T04:50:06.528Z,22.25
2022-08-05T04:52:33.307Z,17.55
2022-08-05T04:55:14.171Z,18.67
2022-08-05T04:57:47.832Z,23.15
2022-08-05T05:00:26.111Z,20.20
2022-08-05T05:02:53.425Z,20.85
2022-08-05T05:05:28.289Z,21.75
2022-08-05T05:08:04.065Z,20.65
2022-08-05T05:10:33.596Z,18.77
2022-08-05T05:13:04.109Z,17.35
2022-08-05T05:15:57.436Z,17.58
2022-08-05T05:18:34.091Z,19.40
2022-08-05T05:21:08.987Z,17.77
2022-08-05T05:24:02.819Z,19.65
2022-08-05T05:26:39.691Z,25.08
2022-08-05T05:29:14.683Z,16.02
2022-08-05T05:31:48.902Z,20.95
2022-08-05T05:34:23.909Z,19.90
2022-08-05T05:37:00.857Z,22.13
2022-08-05T05:39:34.418Z,28.40
2022-08-05T05:42:09.069Z,25.45
2022-08-05T05:44:42.940Z,17.20
2022-08-05T05:47:22.115Z,20.33
2022-08-05T05:49:57.015Z,22.85
2022-08-05T05:52:40.577Z,20.15
2022-08-05T05:55:16.029Z,22.00
2022-08-05T05:57:53.231Z,23.00
2022-08-05T06:00:21.047Z,21.88
2022-08-05T06:03:39.709Z,29.08
2022-08-05T06:05:58.164Z,17.20
2022-08-05T06:08:32.870Z,28.63
2022-08-05T06:11:08.046Z,22.95
2022-08-05T06:13:53.711Z,20.70
2022-08-05T06:16:28.783Z,17.67
2022-08-05T06:19:07.303Z,14.57
2022-08-05T06:21:37.839Z,17.58
2022-08-05T06:24:27.369Z,21.67
2022-08-05T06:26:55.004Z,15.30
2022-08-05T06:29:42.790Z,18.95
2022-08-05T06:32:24.803Z,21.50
2022-08-05T06:34:56.173Z,17.08
2022-08-05T06:37:56.724Z,20.42
2022-08-05T06:40:21.572Z,14.45
2022-08-05T06:43:02.131Z,15.80
2022-08-05T06:45:45.097Z,15.50
2022-08-05T06:48:53.199Z,17.67
2022-08-05T06:51:21.846Z,18.60
2022-08-05T06:54:03.390Z,20.42
2022-08-05T06:59:09.864Z,15.93
2022-08-05T07:01:42.490Z,19.08
2022-08-05T07:04:25.037Z,21.83
2022-08-05T07:06:53.256Z,15.52
2022-08-05T07:09:26.921Z,15.57
2022-08-05T07:12:00.348Z,13.68
2022-08-05T07:14:54.005Z,15.43
2022-08-05T07:18:08.486Z,17.10
2022-08-05T07:20:32.827Z,10.63
2022-08-05T07:23:00.524Z,20.00
2022-08-05T07:25:55.167Z,10.40
2022-08-05T07:28:25.247Z,15.00
2022-08-05T07:31:00.030Z,16.40
2022-08-05T07:33:36.718Z,15.40
2022-08-05T07:36:20.739Z,11.43
2022-08-05T07:38:58.195Z,19.05
2022-08-05T07:42:14.418Z,17.88
2022-08-05T07:44:19.748Z,17.35
2022-08-05T07:46:55.053Z,9.73
2022-08-05T07:49:22.210Z,14.85
2022-08-05T07:51:54.613Z,9.05
2022-08-05T07:54:38.560Z,15.15
2022-08-05T07:57:23.666Z,7.78
2022-08-05T08:00:11.542Z,19.92
2022-08-05T08:03:13.685Z,10.63
2022-08-05T08:05:50.091Z,13.18
2022-08-05T08:08:20.002Z,15.18
2022-08-05T08:10:48.834Z,12.20
2022-08-05T08:13:31.531Z,12.18
2022-08-05T08:16:49.761Z,9.82
2022-08-05T08:19:03.960Z,11.00
2022-08-05T08:21:33.795Z,10.65
2022-08-05T08:24:21.066Z,16.55
2022-08-05T08:27:08.354Z,9.75
2022-08-05T08:30:05.619Z,13.20
2022-08-05T08:32:33.493Z,13.43
2022-08-05T08:35:06.968Z,12.02
2022-08-05T08:37:45.105Z,12.38
2022-08-05T08:40:19.216Z,10.50
2022-08-05T08:42:50.990Z,8.38
2022-08-05T08:45:29.749Z,9.75
2022-08-05T08:48:07.375Z,9.60
2022-08-05T08:51:03.389Z,9.13
2022-08-05T08:53:37.888Z,3.47
2022-08-05T08:56:18.225Z,10.93
2022-08-05T08:58:47.934Z,9.48
2022-08-05T09:01:18.083Z,8.27
2022-08-05T09:04:00.247Z,8.02
2022-08-05T09:06:29.608Z,7.15
2022-08-05T09:08:58.578Z,10.23
2022-08-05T09:11:52.906Z,11.70
2022-08-05T09:14:56.315Z,5.00
2022-08-05T09:17:43.144Z,12.10
2022-08-05T09:20:05.252Z,19.42
2022-08-05T09:23:07.703Z,7.13
2022-08-05T09:26:02.078Z,8.48
2022-08-05T09:28:37.944Z,10.63
2022-08-05T09:31:43.899Z,4.63
2022-08-05T09:34:09.845Z,7.63
2022-08-05T09:36:55.186Z,4.95
2022-08-05T09:39:41.751Z,8.13
2022-08-05T09:42:23.597Z,4.60
2022-08-05T09:45:17.281Z,7.32
2022-08-05T09:47:56.432Z,9.40
2022-08-05T09:50:44.633Z,6.00
2022-08-05T09:53:23.176Z,7.43
2022-08-05T09:56:13.283Z,12.32
2022-08-05T09:58:41.862Z,3.75
2022-08-05T10:01:31.580Z,3.20
2022-08-05T10:04:03.083Z,8.82
2022-08-05T10:06:38.276Z,4.47
2022-08-05T10:09:27.500Z,4.80
2022-08-05T10:12:07.263Z,8.18
2022-08-05T10:14:46.294Z,7.47
2022-08-05T10:17:37.239Z,4.13
2022-08-05T10:20:09.642Z,9.75
2022-08-05T10:22:50.718Z,5.38
2022-08-05T10:25:37.935Z,6.85
2022-08-05T10:28:19.276Z,10.15
2022-08-05T10:32:50.604Z,5.03
2022-08-05T10:33:52.418Z,5.38
2022-08-05T10:36:23.743Z,5.78
2022-08-05T10:39:10.020Z,4.68
2022-08-05T10:41:46.573Z,8.63
2022-08-05T10:44:23.095Z,6.82
2022-08-05T10:46:54.330Z,7.97
2022-08-05T10:49:32.894Z,4.82
2022-08-05T10:52:05.031Z,7.25
2022-08-05T10:54:58.134Z,3.90
2022-08-05T10:57:31.763Z,4.05
2022-08-05T11:00:23.951Z,5.75
2022-08-05T11:03:24.216Z,2.97
2022-08-05T11:06:15.214Z,6.32
2022-08-05T11:09:17.449Z,5.70
2022-08-05T11:11:56.238Z,4.50
2022-08-05T11:14:42.912Z,3.90
2022-08-05T11:20:17.030Z,4.57
2022-08-05T11:23:06.097Z,1.60
2022-08-05T11:26:04.963Z,6.82
2022-08-05T11:28:42.211Z,3.92
2022-08-05T11:31:09.521Z,5.75
2022-08-05T11:33:56.287Z,5.63
2022-08-05T11:36:47.153Z,4.90
2022-08-05T11:39:48.172Z,4.07
2022-08-05T11:42:18.376Z,4.30
2022-08-05T11:44:53.603Z,4.38
2022-08-05T11:47:49.047Z,3.97
2022-08-05T11:50:16.524Z,3.58
2022-08-05T11:52:53.092Z,2.13
2022-08-05T11:55:32.213Z,3.58
2022-08-05T11:58:12.015Z,5.03
2022-08-05T12:00:41.640Z,3.10
2022-08-05T12:03:31.483Z,4.03
2022-08-05T12:06:10.136Z,7.70
2022-08-05T12:08:51.571Z,5.28
2022-08-05T12:11:20.901Z,4.05
2022-08-05T12:14:07.321Z,2.45
2022-08-05T12:16:38.262Z,4.95
2022-08-05T12:19:08.251Z,2.78
2022-08-05T12:21:43.165Z,1.25
2022-08-05T12:24:17.299Z,3.25
2022-08-05T12:26:59.344Z,4.30
2022-08-05T12:29:38.783Z,5.30
2022-08-05T12:32:13.274Z,3.53
2022-08-05T12:34:41.284Z,2.35
2022-08-05T12:37:17.475Z,4.05
2022-08-05T12:40:10.724Z,5.97
2022-08-05T12:42:46.954Z,4.68
2022-08-05T12:45:23.146Z,2.85
2022-08-05T12:48:27.697Z,1.85
2022-08-05T12:52:14.493Z,4.32
2022-08-05T12:54:26.557Z,5.15
2022-08-05T12:57:10.129Z,3.40
2022-08-05T13:01:56.917Z,1.38
2022-08-05T13:02:55.506Z,1.40
2022-08-05T13:05:23.652Z,1.63
2022-08-05T13:07:59.832Z,3.00
2022-08-05T13:10:29.770Z,1.25
2022-08-05T13:12:57.980Z,0.82
2022-08-05T13:15:50.342Z,2.75
2022-08-05T13:18:21.401Z,5.30
2022-08-05T13:20:58.251Z,7.45
2022-08-05T13:23:25.458Z,1.23
2022-08-05T13:26:07.212Z,1.35
2022-08-05T13:28:44.091Z,2.13
2022-08-05T13:31:18.324Z,4.57
2022-08-05T13:34:21.911Z,2.67
2022-08-05T13:36:55.284Z,1.48
2022-08-05T13:40:14.008Z,2.50
2022-08-05T13:42:17.295Z,1.27
2022-08-05T13:44:46.252Z,1.52
2022-08-05T13:47:34.959Z,3.28
2022-08-05T13:50:12.427Z,2.75
2022-08-05T13:52:43.505Z,2.38
2022-08-05T13:55:41.595Z,1.85
2022-08-05T13:58:05.305Z,1.60
2022-08-05T14:00:43.210Z,1.42
2022-08-05T14:03:16.383Z,1.52
2022-08-05T14:06:25.372Z,3.83
2022-08-05T14:08:44.802Z,2.70
2022-08-05T14:11:20.885Z,2.40
2022-08-05T14:13:49.276Z,3.47
2022-08-05T14:16:32.282Z,2.58
2022-08-05T14:19:04.216Z,1.43
2022-08-05T14:22:09.531Z,2.92
2022-08-05T14:24:26.408Z,2.78
2022-08-05T14:27:17.669Z,2.30
2022-08-05T14:29:52.328Z,3.28
2022-08-05T14:32:27.058Z,4.68
2022-08-05T14:35:11.421Z,1.80
2022-08-05T14:37:48.069Z,3.63
2022-08-05T14:40:24.279Z,4.03
2022-08-05T14:42:52.229Z,0.70
2022-08-05T14:45:19.594Z,1.65
2022-08-05T14:48:03.882Z,3.80
2022-08-05T14:50:40.800Z,4.70
2022-08-05T14:53:15.192Z,2.25
2022-08-05T14:55:42.392Z,2.53
2022-08-05T14:58:12.144Z,3.05
2022-08-05T15:00:59.531Z,2.60
2022-08-05T15:03:33.208Z,4.40
2022-08-05T15:06:14.967Z,5.63
2022-08-05T15:08:59.517Z,4.60
2022-08-05T15:11:52.564Z,4.87
2022-08-05T15:14:35.881Z,4.55
2022-08-05T15:17:47.097Z,1.85
2022-08-05T15:20:03.859Z,1.83
2022-08-05T15:22:37.257Z,3.78
2022-08-05T15:25:41.042Z,2.70
2022-08-05T15:28:19.343Z,1.75
2022-08-05T15:30:53.040Z,2.90
2022-08-05T15:34:04.787Z,5.10
2022-08-05T15:36:17.412Z,3.05
2022-08-05T15:40:58.761Z,6.18
2022-08-05T15:41:58.184Z,1.95
2022-08-05T15:44:33.116Z,4.13
2022-08-05T15:47:04.392Z,4.10
2022-08-05T15:49:53.829Z,4.47
2022-08-05T15:52:52.045Z,2.50
2022-08-05T15:55:15.536Z,3.38
2022-08-05T15:57:50.484Z,4.63
2022-08-05T16:00:30.642Z,3.67
2022-08-05T16:03:12.231Z,6.20
2022-08-05T16:05:42.270Z,3.20
2022-08-05T16:08:09.465Z,2.17
2022-08-05T16:10:43.351Z,2.50
2022-08-05T16:13:10.585Z,5.22
2022-08-05T16:15:40.074Z,6.18
2022-08-05T16:18:17.217Z,3.55
2022-08-05T16:20:44.900Z,4.82
2022-08-05T16:23:13.216Z,3.25
2022-08-05T16:25:47.846Z,1.88
2022-08-05T16:28:21.462Z,5.85
2022-08-05T16:31:07.976Z,5.35
2022-08-05T16:33:41.551Z,3.40
2022-08-05T16:36:20.442Z,2.53
2022-08-05T16:38:55.150Z,3.40
2022-08-05T16:42:12.580Z,5.13
2022-08-05T16:44:17.825Z,5.88
2022-08-05T16:46:55.817Z,4.93
2022-08-05T16:49:23.607Z,5.47
2022-08-05T16:51:51.240Z,4.72
2022-08-05T16:54:32.880Z,4.32
2022-08-05T16:57:00.632Z,3.13
2022-08-05T17:00:01.464Z,4.75
2022-08-05T17:02:28.369Z,5.10
2022-08-05T17:05:04.311Z,3.92
2022-08-05T17:07:43.640Z,3.92
2022-08-05T17:10:30.451Z,9.32
2022-08-05T17:12:58.271Z,12.07
2022-08-05T17:15:29.337Z,5.78
2022-08-05T17:18:19.546Z,5.45
2022-08-05T17:20:48.071Z,6.60
2022-08-05T17:24:03.134Z,5.85
2022-08-05T17:26:10.513Z,5.07
2022-08-05T17:28:47.291Z,3.15
2022-08-05T17:31:24.081Z,5.88
2022-08-05T17:34:08.483Z,7.70
2022-08-05T17:36:42.369Z,5.95
2022-08-05T17:39:24.133Z,7.40
2022-08-05T17:42:18.277Z,9.13
2022-08-05T17:44:50.537Z,4.38
2022-08-05T17:47:26.210Z,9.40
2022-08-05T17:50:04.102Z,8.20
2022-08-05T17:52:53.050Z,6.10
2022-08-05T17:55:22.560Z,7.05
2022-08-05T17:58:01.301Z,5.00
2022-08-05T18:00:29.382Z,5.07
2022-08-05T18:02:57.103Z,8.50
2022-08-05T18:08:16.381Z,4.40
2022-08-05T18:10:50.533Z,6.97
2022-08-05T18:13:17.763Z,5.97
2022-08-05T18:15:46.009Z,8.85
2022-08-05T18:18:26.370Z,4.70
2022-08-05T18:20:55.043Z,8.68
2022-08-05T18:23:22.334Z,7.57
2022-08-05T18:25:57.778Z,7.75
2022-08-05T18:28:33.171Z,6.90
2022-08-05T18:31:07.541Z,10.48
2022-08-05T18:33:47.162Z,6.07
2022-08-05T18:36:32.338Z,7.53
2022-08-05T18:39:22.383Z,9.57
2022-08-05T18:42:06.073Z,9.25
2022-08-05T18:44:51.837Z,7.13
2022-08-05T18:47:31.052Z,8.55
2022-08-05T18:50:20.829Z,7.03
2022-08-05T18:53:19.114Z,5.28
2022-08-05T18:55:48.332Z,8.32
2022-08-05T18:58:28.855Z,10.65
2022-08-05T19:00:56.863Z,9.38
2022-08-05T19:03:53.052Z,10.57
2022-08-05T19:06:37.271Z,8.68
2022-08-05T19:09:18.354Z,9.65
2022-08-05T19:12:00.089Z,12.00
2022-08-05T19:14:52.192Z,6.78
2022-08-05T19:17:22.582Z,9.98
2022-08-05T19:20:02.464Z,12.23
2022-08-05T19:22:30.545Z,16.17
2022-08-05T19:25:01.047Z,10.00
2022-08-05T19:27:36.453Z,14.10
2022-08-05T19:30:06.903Z,14.73
2022-08-05T19:32:34.570Z,12.48
2022-08-05T19:38:04.741Z,16.10
2022-08-05T19:43:04.890Z,11.23
2022-08-05T19:45:40.379Z,20.55
2022-08-05T19:48:21.740Z,12.13
2022-08-05T19:50:55.622Z,9.55
2022-08-05T19:54:05.347Z,14.90
2022-08-05T19:56:29.926Z,11.68
2022-08-05T19:59:51.484Z,8.00
2022-08-05T20:01:54.424Z,17.33
2022-08-05T20:04:21.933Z,14.35
2022-08-05T20:06:51.758Z,14.05
2022-08-05T20:09:25.415Z,12.90
2022-08-05T20:11:52.713Z,12.20
2022-08-05T20:14:26.607Z,22.13
2022-08-05T20:17:08.490Z,16.75
2022-08-05T20:19:41.370Z,22.17
2022-08-05T20:22:16.230Z,14.60
2022-08-05T20:24:44.022Z,20.95
2022-08-05T20:27:26.875Z,19.80
2022-08-05T20:29:58.901Z,23.83
2022-08-05T20:32:33.375Z,19.10
2022-08-05T20:35:00.658Z,19.42
2022-08-05T20:38:06.135Z,19.42
2022-08-05T20:40:21.446Z,16.33
2022-08-05T20:42:48.678Z,24.42
2022-08-05T20:45:15.825Z,18.85
2022-08-05T20:47:54.616Z,23.95
2022-08-05T20:50:21.908Z,22.77
2022-08-05T20:52:49.759Z,24.92
2022-08-05T20:55:55.332Z,19.52
2022-08-05T20:58:15.341Z,31.48
2022-08-05T21:00:54.371Z,18.70
2022-08-05T21:03:22.173Z,16.70
2022-08-05T21:05:56.412Z,25.17
2022-08-05T21:08:41.530Z,14.65
2022-08-05T21:12:10.075Z,18.02
2022-08-05T21:14:09.746Z,31.88
2022-08-05T21:16:46.587Z,20.60
2022-08-05T21:19:13.875Z,23.17
2022-08-05T21:21:50.437Z,16.42
2022-08-05T21:24:27.344Z,18.75
2022-08-05T21:27:15.212Z,21.00
2022-08-05T21:29:50.925Z,21.50
2022-08-05T21:32:21.142Z,24.70
2022-08-05T21:35:06.923Z,23.02
2022-08-05T21:37:47.216Z,20.65
2022-08-05T21:40:20.035Z,21.95
2022-08-05T21:42:54.428Z,27.95
2022-08-05T21:45:56.682Z,24.35
2022-08-05T21:48:20.603Z,17.80
2022-08-05T21:50:53.030Z,25.92
2022-08-05T21:53:28.711Z,25.15
2022-08-05T21:56:05.996Z,27.67
2022-08-05T21:58:57.810Z,19.13
2022-08-05T22:01:28.956Z,26.60
2022-08-05T22:04:13.400Z,28.35
2022-08-05T22:06:42.154Z,22.73
2022-08-05T22:09:24.487Z,26.27
2022-08-05T22:12:11.869Z,30.67
2022-08-05T22:14:50.372Z,23.50
2022-08-05T22:17:19.383Z,31.95
2022-08-05T22:20:02.226Z,33.17
2022-08-05T22:22:59.545Z,25.33
2022-08-05T22:26:10.553Z,32.35
2022-08-05T22:28:46.471Z,35.30
2022-08-05T22:31:13.763Z,21.25
2022-08-05T22:33:58.042Z,23.20
2022-08-05T22:36:35.538Z,19.65
2022-08-05T22:39:09.681Z,29.50
2022-08-05T22:42:11.473Z,32.50
2022-08-05T22:44:33.670Z,26.85
2022-08-05T22:47:08.536Z,23.08
2022-08-05T22:50:21.472Z,29.00
2022-08-05T22:52:34.698Z,28.38
2022-08-05T22:55:02.188Z,24.73
2022-08-05T22:57:36.144Z,31.02
2022-08-05T23:00:11.643Z,21.42
2022-08-05T23:02:46.602Z,22.00
2022-08-05T23:05:23.563Z,17.88
2022-08-05T23:07:55.724Z,22.02
2022-08-05T23:10:23.956Z,21.85
2022-08-05T23:13:07.438Z,22.95
2022-08-05T23:15:39.405Z,23.33
2022-08-05T23:18:16.093Z,26.33
2022-08-05T23:20:45.228Z,23.20
2022-08-05T23:23:12.553Z,26.02
2022-08-05T23:25:52.394Z,15.68
2022-08-05T23:28:29.471Z,25.45
2022-08-05T23:31:15.976Z,19.65
2022-08-05T23:34:05.106Z,19.95
2022-08-05T23:36:41.507Z,19.95
2022-08-05T23:39:17.419Z,25.40
2022-08-05T23:42:14.221Z,19.17
2022-08-05T23:44:42.583Z,22.55
2022-08-05T23:47:16.413Z,16.58
2022-08-05T23:49:48.534Z,12.93
2022-08-05T23:52:49.459Z,16.17
2022-08-05T23:55:17.889Z,21.67
2022-08-05T23:57:52.851Z,22.17
